Latest Weather Observations for Nuriootpa

IDS60801

Issued at 9:05 am CST Sunday 21 September 2014 (issued every 30 minutes, with the page automatically refreshed every 10 minutes)

About weather observations | Map of weather stations | Latest weather observations for SA | Other Formats
Station Details ID: 023373 Name: NURIOOTPA VITICULTURAL Lat: -34.48 Lon: 139.01 Height: 275.0 m
Data from the previous 72 hours. | See also: Recent months at Nuriootpa
Date/Time
CST
Temp
°C
App
Temp
°C
Dew
Point
Rel
Hum
%
Delta-T
°C
Wind Press
QNH
hPa
Press
MSL
hPa
Rain
since 9 am
mm
Dir
 
Spd
km/h
Gust
km/h
Spd
kts
Gust
kts
21/09:00am 14.8 10.8 2.8 44 5.4 NE 13 19 7 10 1030.8 1030.8 0.0
21/08:30am 13.9 9.4 2.1 45 5.2 NE 15 20 8 11 1030.5 1030.5 0.0
21/08:00am 12.2 8.2 2.6 52 4.2 NE 13 20 7 11 1030.4 1030.4 0.0
21/07:30am 10.3 7.8 3.5 62 3.0 NNE 6 9 3 5 1030.4 1030.4 0.0
21/07:00am 6.1 3.4 2.7 79 1.4 N 6 7 3 4 1030.1 1030.1 0.0
21/06:30am 4.5 1.4 1.2 79 1.3 NE 7 9 4 5 1029.8 1029.8 0.0
21/06:00am 4.4 1.3 1.6 82 1.1 ENE 7 9 4 5 1029.6 1029.6 0.0
21/05:30am 5.3 2.3 1.8 78 1.4 NE 7 9 4 5 1029.2 1029.3 0.0
21/05:00am 6.5 3.5 1.9 72 1.9 E 7 11 4 6 1028.6 1028.7 0.0
21/04:30am 7.1 4.1 2.0 70 2.1 E 7 11 4 6 1028.4 1028.5 0.0
21/04:00am 7.6 3.8 1.8 67 2.4 ESE 11 15 6 8 1028.0 1028.0 0.0
21/03:30am 8.2 4.3 1.4 62 2.8 E 11 17 6 9 1027.9 1027.9 0.0
21/03:00am 7.9 4.4 1.3 63 2.7 E 9 13 5 7 1027.9 1027.9 0.0
21/02:30am 8.5 5.0 1.5 61 2.9 E 9 13 5 7 1028.2 1028.3 0.0
21/02:00am 8.9 5.8 1.1 58 3.2 E 7 11 4 6 1028.3 1028.4 0.0
21/01:30am 9.9 6.0 1.0 54 3.7 E 11 15 6 8 1028.3 1028.4 0.0
21/01:00am 9.0 6.2 1.8 60 3.0 E 6 9 3 5 1028.3 1028.4 0.0
21/12:30am 9.6 6.2 1.8 58 3.3 E 9 15 5 8 1028.4 1028.5 0.0
21/12:00am 10.7 6.4 1.2 52 4.0 E 13 20 7 11 1028.3 1028.4 0.0
 
Date/Time
CST
Temp
°C
App
Temp
°C
Dew
Point
Rel
Hum
%
Delta-T
°C
Wind Press
QNH
hPa
Press
MSL
hPa
Rain
since 9 am
mm
Dir
 
Spd
km/h
Gust
km/h
Spd
kts
Gust
kts
20/11:30pm 10.7 5.7 1.5 53 3.9 ESE 17 22 9 12 1028.5 1028.6 0.0
20/11:00pm 10.8 5.9 1.9 54 3.8 ESE 17 24 9 13 1028.4 1028.5 0.0
20/10:30pm 11.1 6.2 2.0 53 3.9 ESE 17 24 9 13 1028.4 1028.5 0.0
20/10:00pm 10.9 6.5 2.6 56 3.6 ESE 15 22 8 12 1028.3 1028.4 0.0
20/09:30pm 11.6 6.8 2.7 54 3.9 ESE 17 24 9 13 1028.4 1028.5 0.0
20/09:00pm 12.1 7.5 1.3 47 4.6 ESE 15 22 8 12 1028.2 1028.3 0.0
20/08:30pm 12.1 7.6 -0.6 41 5.2 ESE 13 17 7 9 1028.1 1028.1 0.0
20/08:00pm 12.0 7.4 -0.8 41 5.2 ESE 13 17 7 9 1027.9 1027.9 0.0
20/07:30pm 12.5 8.0 -0.3 41 5.3 ESE 13 17 7 9 1027.5 1027.5 0.0
20/07:00pm 13.0 8.6 0.1 41 5.4 ESE 13 15 7 8 1027.1 1027.1 0.0
20/06:30pm 13.6 10.1 1.4 43 5.3 ESE 9 13 5 7 1026.8 1026.8 0.0
20/06:00pm 15.9 11.8 0.1 34 6.8 ESE 11 15 6 8 1026.3 1026.3 0.0
20/05:30pm 17.6 13.3 -1.6 27 8.1 ESE 11 15 6 8 1026.0 1026.0 0.0
20/05:00pm 18.4 13.4 -1.5 26 8.5 SE 15 22 8 12 1025.5 1025.6 0.0
20/04:30pm 18.9 13.7 -0.2 27 8.4 SE 17 24 9 13 1025.2 1025.3 0.0
20/04:00pm 19.4 14.6 0.4 28 8.5 ESE 15 24 8 13 1025.0 1025.0 0.0
20/03:30pm 19.7 15.3 0.6 28 8.6 E 13 17 7 9 1024.8 1024.8 0.0
20/03:00pm 19.8 16.1 -0.3 26 8.9 NE 9 15 5 8 1024.8 1024.8 0.0
20/02:30pm 19.4 14.8 -0.7 26 8.8 E 13 19 7 10 1024.8 1024.8 0.0
20/02:00pm 19.6 16.1 -1.1 24 9.0 ESE 7 13 4 7 1024.8 1024.8 0.0
20/01:30pm 19.3 15.9 -0.5 26 8.7 SE 7 15 4 8 1025.0 1025.0 0.0
20/01:00pm 18.6 14.0 -0.8 27 8.5 E 13 19 7 10 1025.3 1025.4 0.0
20/12:30pm 18.8 14.2 -0.8 26 8.5 NE 13 19 7 10 1025.8 1025.8 0.0
20/12:00pm 18.4 13.8 -1.2 26 8.4 NE 13 24 7 13 1026.2 1026.2 0.0
20/11:30am 17.8 12.7 -1.6 26 8.2 NNE 15 22 8 12 1026.5 1026.5 0.0
20/11:00am 17.4 11.6 -1.2 28 8.0 NNE 19 26 10 14 1026.9 1026.9 0.0
20/10:30am 16.8 11.6 -0.1 31 7.3 NNE 17 24 9 13 1027.0 1027.0 0.0
20/10:00am 15.8 10.0 -0.1 34 6.9 NE 20 26 11 14 1027.1 1027.1 0.0
20/09:30am 14.8 9.1 -0.4 35 6.4 NE 19 28 10 15 1027.1 1027.1 0.0
20/09:00am 13.3 8.1 -0.1 39 5.6 NE 17 26 9 14 1027.0 1027.0 0.0
20/08:30am 12.5 7.0 0.3 43 5.1 NE 19 22 10 12 1026.8 1026.8 0.0
20/08:00am 11.8 7.3 -0.1 44 4.9 ENE 13 19 7 10 1026.4 1026.4 0.0
20/07:30am 11.0 6.5 -0.6 44 4.7 ENE 13 19 7 10 1026.1 1026.1 0.0
20/07:00am 8.3 4.7 0.7 59 3.1 E 9 13 5 7 1025.9 1025.9 0.0
20/06:30am 6.4 3.0 -0.3 62 2.6 E 7 11 4 6 1025.5 1025.6 0.0
20/06:00am 6.3 3.0 -0.1 63 2.5 E 7 11 4 6 1025.1 1025.2 0.0
20/05:30am 6.0 2.7 0.1 66 2.3 E 7 9 4 5 1024.8 1024.8 0.0
20/05:00am 5.8 2.7 0.2 67 2.2 E 6 9 3 5 1024.3 1024.3 0.0
20/04:30am 7.0 3.7 -0.1 60 2.8 E 7 11 4 6 1024.2 1024.2 0.0
20/04:00am 7.2 3.9 -0.2 59 2.9 E 7 11 4 6 1024.0 1024.0 0.0
20/03:30am 7.9 3.4 -0.5 55 3.3 E 13 17 7 9 1023.8 1023.8 0.0
20/03:00am 7.8 4.1 -0.3 56 3.2 E 9 13 5 7 1023.8 1023.8 0.0
20/02:30am 8.2 4.1 -0.1 56 3.3 E 11 17 6 9 1023.8 1023.8 0.0
20/02:00am 8.3 4.2 0.0 56 3.3 ESE 11 13 6 7 1023.9 1023.9 0.0
20/01:30am 8.9 5.2 -0.1 53 3.6 E 9 15 5 8 1024.0 1024.0 0.0
20/01:00am 8.5 4.9 0.6 57 3.2 E 9 15 5 8 1024.1 1024.1 0.0
20/12:30am 8.1 5.0 1.3 62 2.8 E 7 13 4 7 1024.2 1024.2 0.0
20/12:00am 8.6 5.5 1.1 59 3.1 ENE 7 15 4 8 1024.1 1024.1 0.0
 
Date/Time
CST
Temp
°C
App
Temp
°C
Dew
Point
Rel
Hum
%
Delta-T
°C
Wind Press
QNH
hPa
Press
MSL
hPa
Rain
since 9 am
mm
Dir
 
Spd
km/h
Gust
km/h
Spd
kts
Gust
kts
19/11:30pm 8.7 4.8 1.2 59 3.1 E 11 20 6 11 1024.2 1024.2 0.0
19/11:00pm 8.3 5.3 0.7 59 3.1 ENE 6 7 3 4 1024.2 1024.2 0.0
19/10:30pm 8.8 4.4 0.4 55 3.4 ESE 13 19 7 10 1024.4 1024.4 0.0
19/10:00pm 9.2 4.7 0.0 52 3.7 ESE 13 19 7 10 1024.5 1024.5 0.0
19/09:30pm 8.2 5.2 0.8 59 3.0 E 6 7 3 4 1024.4 1024.4 0.0
19/09:00pm 9.1 5.9 0.5 55 3.5 E 7 9 4 5 1024.4 1024.4 0.0
19/08:30pm 8.9 5.9 0.9 57 3.3 E 6 9 3 5 1024.3 1024.3 0.0
19/08:00pm 8.7 5.6 1.2 59 3.1 E 7 11 4 6 1024.2 1024.2 0.0
19/07:30pm 8.8 4.9 1.3 59 3.1 ESE 11 13 6 7 1024.0 1024.0 0.0
19/07:00pm 9.7 6.5 1.0 54 3.6 ESE 7 11 4 6 1023.9 1023.9 0.0
19/06:30pm 11.4 8.3 1.6 51 4.2 E 7 9 4 5 1023.5 1023.5 0.0
19/06:00pm 14.2 10.9 0.1 38 6.0 ENE 7 11 4 6 1023.4 1023.4 0.0
19/05:30pm 15.7 11.3 -2.4 29 7.4 NE 11 13 6 7 1023.2 1023.2 0.0
19/05:00pm 16.1 11.5 -1.3 30 7.3 N 13 19 7 10 1023.0 1023.0 0.0
19/04:30pm 16.5 12.2 -1.7 29 7.6 NE 11 19 6 10 1022.9 1022.9 0.0
19/04:00pm 16.4 12.5 -1.5 29 7.5 N 9 19 5 10 1023.0 1023.0 0.0
19/03:30pm 16.0 11.3 -1.9 29 7.4 ENE 13 24 7 13 1023.1 1023.1 0.0
19/03:00pm 16.3 11.3 -0.9 31 7.3 NE 15 24 8 13 1023.1 1023.1 0.0
19/02:30pm 16.2 11.6 -0.7 31 7.2 N 13 22 7 12 1023.3 1023.3 0.0
19/02:00pm 15.8 11.2 -0.7 32 7.0 ENE 13 22 7 12 1023.5 1023.5 0.0
19/01:30pm 15.6 12.0 0.3 35 6.6 NNE 9 26 5 14 1023.8 1023.8 0.0
19/01:00pm 15.3 10.5 0.5 36 6.4 E 15 24 8 13 1024.1 1024.1 0.0
19/12:30pm 14.6 10.4 1.4 40 5.8 NE 13 19 7 10 1024.5 1024.5 0.0
19/12:00pm 14.3 9.5 0.5 39 5.9 N 15 24 8 13 1024.9 1024.9 0.0
19/11:30am 14.6 9.6 1.3 40 5.8 NE 17 24 9 13 1025.2 1025.3 0.0
19/11:00am 14.2 10.1 2.3 44 5.3 NE 13 22 7 12 1025.7 1025.7 0.0
19/10:30am 13.3 8.8 2.2 47 4.9 ENE 15 24 8 13 1026.0 1026.0 0.0
19/10:00am 12.7 8.4 3.1 52 4.3 NE 15 20 8 11 1026.3 1026.3 0.0
19/09:30am 11.6 7.3 3.5 57 3.6 NE 15 24 8 13 1026.4 1026.4 0.0
19/09:00am 11.0 6.8 3.9 61 3.2 NE 15 20 8 11 1026.5 1026.5 0.2
19/08:30am 10.0 5.9 4.2 67 2.6 ENE 15 22 8 12 1026.2 1026.2 0.2
19/08:00am 9.2 5.1 4.5 72 2.1 ENE 15 22 8 12 1025.9 1025.9 0.2
19/07:30am 8.0 5.0 4.1 76 1.7 E 9 15 5 8 1025.8 1025.8 0.2
19/07:00am 6.9 4.8 4.1 82 1.2 ENE 4 11 2 6 1025.7 1025.7 0.2
19/06:30am 5.1 2.5 3.4 89 0.7 E 6 9 3 5 1025.4 1025.5 0.2
19/06:00am 4.5 2.2 2.8 89 0.7 W 4 9 2 5 1025.0 1025.0 0.2
19/05:30am 5.2 2.6 3.3 87 0.8 N 6 9 3 5 1024.7 1024.7 0.2
19/05:00am 5.5 2.4 3.6 87 0.8 E 9 15 5 8 1024.6 1024.6 0.2
19/04:30am 5.8 2.3 3.7 86 0.9 E 11 17 6 9 1024.3 1024.3 0.2
19/04:00am 6.1 2.7 3.8 85 1.0 ESE 11 19 6 10 1024.3 1024.3 0.2
19/03:30am 6.3 1.8 4.0 85 1.0 ESE 17 22 9 12 1024.1 1024.1 0.2
19/03:00am 6.3 2.1 4.0 85 1.0 ESE 15 24 8 13 1024.1 1024.1 0.2
19/02:30am 6.8 1.9 4.0 82 1.2 ESE 19 32 10 17 1024.2 1024.2 0.2
19/02:00am 6.9 1.8 4.1 82 1.2 SE 20 30 11 16 1024.4 1024.4 0.2
19/01:30am 7.2 2.1 4.0 80 1.4 SE 20 28 11 15 1024.6 1024.6 0.2
19/01:00am 7.3 2.2 4.3 81 1.3 SE 20 30 11 16 1024.6 1024.6 0.2
19/12:30am 7.3 2.4 4.3 81 1.3 SE 19 26 10 14 1024.8 1024.8 0.2
19/12:00am 7.5 2.7 4.6 82 1.3 SE 19 32 10 17 1025.0 1025.0 0.2
 
Date/Time
CST
Temp
°C
App
Temp
°C
Dew
Point
Rel
Hum
%
Delta-T
°C
Wind Press
QNH
hPa
Press
MSL
hPa
Rain
since 9 am
mm
Dir
 
Spd
km/h
Gust
km/h
Spd
kts
Gust
kts
18/11:30pm 7.5 3.1 5.0 84 1.1 SE 17 28 9 15 1025.2 1025.3 0.2
18/11:00pm 7.6 2.9 5.1 84 1.1 SE 19 26 10 14 1025.3 1025.4 0.2
18/10:30pm 7.9 3.2 5.0 82 1.3 SE 19 26 10 14 1025.4 1025.5 0.2
18/10:00pm 8.0 3.2 4.9 81 1.4 SE 19 26 10 14 1025.5 1025.6 0.2
18/09:30pm 8.0 4.3 4.6 79 1.5 SE 13 20 7 11 1025.8 1025.8 0.2
18/09:00pm 8.2 4.2 4.8 79 1.5 SE 15 20 8 11 1025.8 1025.8 0.2
18/08:30pm 8.6 5.1 5.3 80 1.5 SE 13 19 7 10 1025.8 1025.8 0.2
18/08:00pm 9.0 4.8 5.5 79 1.6 SSE 17 20 9 11 1025.8 1025.8 0.2
18/07:30pm 9.0 6.4 6.0 81 1.4 SSE 9 13 5 7 1025.7 1025.7 0.2
18/07:00pm 9.5 7.6 7.4 87 1.0 SSE 7 9 4 5 1025.3 1025.4 0.2
18/06:30pm 9.8 7.5 7.5 85 1.1 SSE 9 11 5 6 1025.1 1025.2 0.0
18/06:00pm 10.2 7.7 6.6 78 1.7 S 9 13 5 7 1024.8 1024.8 0.0
18/05:30pm 10.9 8.1 5.0 67 2.7 SSE 9 13 5 7 1024.7 1024.7 0.0
18/05:00pm 10.9 8.2 5.8 71 2.4 SSE 9 13 5 7 1024.5 1024.5 0.0
18/04:30pm 11.1 8.5 6.0 71 2.4 SSE 9 11 5 6 1024.4 1024.4 0.0
18/04:00pm 11.0 8.1 6.6 74 2.1 SSE 11 17 6 9 1024.1 1024.1 0.0
18/03:30pm 10.7 6.8 7.2 79 1.7 SE 17 22 9 12 1024.4 1024.4 0.0
18/03:00pm 11.4 6.8 6.4 71 2.4 SSE 20 26 11 14 1024.4 1024.4 0.0
18/02:30pm 12.4 10.3 4.1 57 3.8 NNE 4 7 2 4 1024.3 1024.3 0.0
18/02:00pm 12.1 9.2 4.7 60 3.4 WSW 9 15 5 8 1024.6 1024.6 0.0
18/01:30pm 12.1 8.1 4.7 60 3.4 SW 15 22 8 12 1024.7 1024.7 0.0
18/01:00pm 11.3 7.2 4.5 63 3.1 SW 15 19 8 10 1024.7 1024.7 0.0
18/12:30pm 11.5 8.5 4.0 60 3.4 SW 9 17 5 9 1024.9 1024.9 0.0
18/12:00pm 12.0 9.4 3.3 55 3.9 N 6 9 3 5 1025.1 1025.2 0.0
18/11:30am 12.0 10.3 4.1 58 3.6 ESE 2 11 1 6 1025.5 1025.6 0.0
18/11:00am 11.7 9.1 3.1 55 3.8 SE 6 11 3 6 1025.8 1025.8 0.0
18/10:30am 11.5 8.8 3.7 58 3.5 S 7 11 4 6 1025.9 1025.9 0.0
18/10:00am 11.1 8.7 4.2 62 3.1 SW 6 11 3 6 1026.5 1026.5 0.0
18/09:30am 9.7 8.0 4.1 68 2.5 NW 2 7 1 4 1026.8 1026.8 0.0

Other Formats:

Comma delimited format used in spreadsheet applications
http://www.bom.gov.au/fwo/IDS60801/IDS60801.94681.axf

JavaScript Object Notation format (JSON) in row-major order
http://www.bom.gov.au/fwo/IDS60801/IDS60801.94681.json